This is the latest recevied weather packets stored in our database for station/object JA1RBY-13. If no packets are shown the sender has not sent any weather packets the latest 10 day(s).
| Time | Temp. | Humidity | Pressure | Rain* | Wind** | Luminosity | Snow |
|---|---|---|---|---|---|---|---|
| 1777709197 | 25° C | 21% | 1008.5 hPa | 0 mm | - | - | - |
| 1777708297 | 25° C | 22% | 1008.4 hPa | 0 mm | - | - | - |
| 1777706496 | 25° C | 22% | 1007.9 hPa | 0 mm | - | - | - |
| 1777704696 | 25° C | 27% | 1007.6 hPa | 0 mm | - | - | - |
| 1777702897 | 25° C | 28% | 1007.2 hPa | 0 mm | - | - | - |
| 1777701098 | 25.56° C | 26% | 1007 hPa | 0 mm | - | - | - |
| 1777700196 | 25.56° C | 25% | 1006.8 hPa | 0 mm | - | - | - |
| 1777699296 | 25.56° C | 25% | 1006.8 hPa | 0 mm | - | - | - |
| 1777698396 | 25° C | 29% | 1006.8 hPa | 0 mm | - | - | - |
| 1777697496 | 25.56° C | 30% | 1006.4 hPa | 0 mm | - | - | - |
| 1777695696 | 25.56° C | 34% | 1006.2 hPa | 0 mm | - | - | - |
| 1777694796 | 25.56° C | 35% | 1006.2 hPa | 0 mm | - | - | - |
| 1777693896 | 25.56° C | 32% | 1006.3 hPa | 0 mm | - | - | - |
| 1777692997 | 25.56° C | 34% | 1006.1 hPa | 0 mm | - | - | - |
| 1777691196 | 26.67° C | 25% | 1005.6 hPa | 0 mm | - | - | - |
| 1777690296 | 26.67° C | 32% | 1005.6 hPa | 0 mm | - | - | - |
| 1777689396 | 27.22° C | 29% | 1005.3 hPa | 0 mm | - | - | - |
| 1777688496 | 27.22° C | 27% | 1005.1 hPa | 0 mm | - | - | - |
| 1777686698 | 25.56° C | 30% | 1005 hPa | 0 mm | - | - | - |
| 1777685798 | 25.56° C | 30% | 1004.7 hPa | 0 mm | - | - | - |
| 1777684896 | 26.11° C | 31% | 1004.6 hPa | 0 mm | - | - | - |
| 1777683097 | 25° C | 33% | 1004.3 hPa | 0 mm | - | - | - |
| 1777682198 | 25° C | 34% | 1004.4 hPa | 0 mm | - | - | - |
| 1777680396 | 23.89° C | 39% | 1004.3 hPa | 0 mm | - | - | - |
| 1777679499 | 22.78° C | 41% | 1004.2 hPa | 0 mm | - | - | - |
* Rain latest hour (hover to see other rain measurements)
** Current wind speed in m/s (hover to see current wind gust speed)